createdAt,value
2018-12-19T00:00:45.529Z,1006.48
2018-12-19T00:01:45.521Z,1006.46
2018-12-19T00:02:45.528Z,1006.45
2018-12-19T00:03:45.497Z,1006.49
2018-12-19T00:04:45.484Z,1006.48
2018-12-19T00:05:45.477Z,1006.57
2018-12-19T00:06:45.465Z,1006.54
2018-12-19T00:07:45.489Z,1006.55
2018-12-19T00:08:45.440Z,1006.45
2018-12-19T00:09:45.429Z,1006.49
2018-12-19T00:10:45.423Z,1006.48
2018-12-19T00:11:45.406Z,1006.42
2018-12-19T00:12:45.416Z,1006.34
2018-12-19T00:13:45.384Z,1006.35
2018-12-19T00:14:45.372Z,1006.42
2018-12-19T00:15:45.361Z,1006.28
2018-12-19T00:16:45.352Z,1006.24
2018-12-19T00:17:45.363Z,1006.26
2018-12-19T00:18:45.334Z,1006.23
2018-12-19T00:19:45.318Z,1006.24
2018-12-19T00:20:45.308Z,1006.20
2018-12-19T00:21:45.295Z,1006.18
2018-12-19T00:22:45.303Z,1006.20
2018-12-19T00:23:45.272Z,1006.15
2018-12-19T00:24:45.263Z,1006.15
2018-12-19T00:25:45.252Z,1006.09
2018-12-19T00:26:45.241Z,1006.08
2018-12-19T00:27:45.519Z,1006.13
2018-12-19T00:28:45.220Z,1006.07
2018-12-19T00:29:45.207Z,1006.02
2018-12-19T00:30:45.197Z,1006.10
2018-12-19T00:31:45.188Z,1006.06
2018-12-19T00:32:45.171Z,1006.09
2018-12-19T00:33:45.185Z,1006.09
2018-12-19T00:34:45.148Z,1006.10
2018-12-19T00:35:45.142Z,1006.10
2018-12-19T00:36:45.126Z,1006.11
2018-12-19T00:37:45.115Z,1006.10
2018-12-19T00:38:45.126Z,1006.18
2018-12-19T00:39:45.093Z,1006.21
2018-12-19T00:40:45.085Z,1006.19
2018-12-19T00:41:45.079Z,1006.17
2018-12-19T00:42:45.060Z,1006.13
2018-12-19T00:43:45.076Z,1006.15
2018-12-19T00:44:45.037Z,1006.13
2018-12-19T00:45:45.026Z,1006.13
2018-12-19T00:46:45.020Z,1006.19
2018-12-19T00:47:45.010Z,1006.22
2018-12-19T00:48:45.011Z,1006.17
2018-12-19T00:49:46.213Z,1006.17
2018-12-19T00:50:44.970Z,1006.13
2018-12-19T00:51:44.958Z,1006.19
2018-12-19T00:52:44.951Z,1006.20
2018-12-19T00:53:44.956Z,1006.13
2018-12-19T00:54:44.926Z,1006.14
2018-12-19T00:55:44.913Z,1006.09
2018-12-19T00:56:44.901Z,1006.11
2018-12-19T00:57:44.892Z,1006.10
2018-12-19T00:58:44.902Z,1006.06
2018-12-19T00:59:44.869Z,1006.00
2018-12-19T01:00:44.868Z,1005.94
2018-12-19T01:01:44.849Z,1005.88
2018-12-19T01:02:44.835Z,1005.80
2018-12-19T01:03:44.847Z,1005.76
2018-12-19T01:04:48.037Z,1005.68
2018-12-19T01:05:44.811Z,1005.68
2018-12-19T01:06:44.792Z,1005.64
2018-12-19T01:07:44.783Z,1005.64
2018-12-19T01:08:44.816Z,1005.63
2018-12-19T01:09:44.757Z,1005.60
2018-12-19T01:10:44.749Z,1005.62
2018-12-19T01:11:44.733Z,1005.58
2018-12-19T01:12:44.724Z,1005.59
2018-12-19T01:13:44.762Z,1005.70
2018-12-19T01:14:44.724Z,1005.78
2018-12-19T01:15:44.689Z,1005.83
2018-12-19T01:16:44.678Z,1005.91
2018-12-19T01:17:44.668Z,1005.93
2018-12-19T01:18:44.676Z,1005.95
2018-12-19T01:19:44.645Z,1006.00
2018-12-19T01:20:44.637Z,1005.95
2018-12-19T01:21:44.622Z,1005.98
2018-12-19T01:22:44.615Z,1006.06
2018-12-19T01:23:44.621Z,1006.03
2018-12-19T01:24:44.592Z,1005.99
2018-12-19T01:25:44.578Z,1006.03
2018-12-19T01:26:44.575Z,1005.95
2018-12-19T01:27:44.557Z,1005.97
2018-12-19T01:28:44.565Z,1005.97
2018-12-19T01:29:44.533Z,1005.99
2018-12-19T01:30:44.522Z,1005.98
2018-12-19T01:31:44.510Z,1005.94
2018-12-19T01:32:44.516Z,1005.86
2018-12-19T01:33:44.509Z,1005.75
2018-12-19T01:34:44.478Z,1005.70
2018-12-19T01:35:44.471Z,1005.92
2018-12-19T01:36:44.455Z,1006.17
2018-12-19T01:37:44.443Z,1006.07
2018-12-19T01:38:44.452Z,1006.04
2018-12-19T01:39:44.428Z,1006.14
2018-12-19T01:40:44.409Z,1006.09
2018-12-19T01:41:44.401Z,1006.01
2018-12-19T01:42:44.391Z,1006.14
2018-12-19T01:43:44.399Z,1006.19
2018-12-19T01:44:44.366Z,1006.15
2018-12-19T01:45:44.357Z,1006.14
2018-12-19T01:46:44.349Z,1006.12
2018-12-19T01:47:44.330Z,1006.10
2018-12-19T01:48:44.342Z,1006.11
2018-12-19T01:49:44.311Z,1006.06
2018-12-19T01:50:44.300Z,1006.13
2018-12-19T01:51:44.287Z,1006.11
2018-12-19T01:52:44.275Z,1006.10
2018-12-19T01:53:44.283Z,1006.08
2018-12-19T01:54:44.252Z,1006.06
2018-12-19T01:55:44.247Z,1006.13
2018-12-19T01:56:44.229Z,1006.13
2018-12-19T01:57:44.219Z,1006.16
2018-12-19T01:58:44.230Z,1006.15
2018-12-19T01:59:44.198Z,1006.14
2018-12-19T02:00:44.243Z,1006.14
2018-12-19T02:01:44.177Z,1006.13
2018-12-19T02:02:44.165Z,1006.11
2018-12-19T02:03:44.175Z,1006.22
2018-12-19T02:04:44.140Z,1006.21
2018-12-19T02:05:44.131Z,1006.15
2018-12-19T02:06:44.121Z,1006.13
2018-12-19T02:07:44.107Z,1006.10
2018-12-19T02:08:44.116Z,1006.12
2018-12-19T02:09:44.088Z,1006.19
2018-12-19T02:10:44.073Z,1006.14
2018-12-19T02:11:44.061Z,1006.15
2018-12-19T02:12:44.062Z,1006.06
2018-12-19T02:13:44.061Z,1006.07
2018-12-19T02:14:44.028Z,1006.04
2018-12-19T02:15:44.017Z,1006.05
2018-12-19T02:16:44.005Z,1006.13
2018-12-19T02:17:44.067Z,1006.09
2018-12-19T02:18:44.024Z,1006.07
2018-12-19T02:19:43.975Z,1006.04
2018-12-19T02:20:43.961Z,1006.08
2018-12-19T02:21:43.950Z,1006.07
2018-12-19T02:22:43.939Z,1006.03
2018-12-19T02:23:43.925Z,1006.04
2018-12-19T02:24:43.937Z,1006.04
2018-12-19T02:25:43.908Z,1006.06
2018-12-19T02:26:43.896Z,1006.05
2018-12-19T02:27:43.897Z,1006.07
2018-12-19T02:28:43.870Z,1006.08
2018-12-19T02:29:43.880Z,1006.03
2018-12-19T02:30:43.848Z,1006.09
2018-12-19T02:31:43.860Z,1006.08
2018-12-19T02:32:43.828Z,1006.07
2018-12-19T02:33:43.856Z,1006.04
2018-12-19T02:34:43.829Z,1006.06
2018-12-19T02:35:43.795Z,1006.10
2018-12-19T02:36:43.781Z,1006.13
2018-12-19T02:37:43.778Z,1006.11
2018-12-19T02:38:43.758Z,1006.07
2018-12-19T02:39:43.769Z,1006.09
2018-12-19T02:40:43.736Z,1006.13
2018-12-19T02:41:43.724Z,1006.09
2018-12-19T02:42:43.731Z,1005.99
2018-12-19T02:43:43.704Z,1005.95
2018-12-19T02:44:43.713Z,1006.01
2018-12-19T02:45:43.679Z,1006.04
2018-12-19T02:46:43.695Z,1005.94
2018-12-19T02:47:43.657Z,1005.94
2018-12-19T02:48:43.652Z,1005.94
2018-12-19T02:49:43.653Z,1005.90
2018-12-19T02:50:43.623Z,1005.87
2018-12-19T02:51:43.613Z,1005.82
2018-12-19T02:52:43.599Z,1005.90
2018-12-19T02:53:43.588Z,1005.84
2018-12-19T02:54:43.599Z,1005.78
2018-12-19T02:55:43.567Z,1005.79
2018-12-19T02:56:43.556Z,1005.80
2018-12-19T02:57:43.547Z,1005.84
2018-12-19T02:58:43.532Z,1005.85
2018-12-19T02:59:43.543Z,1005.82
2018-12-19T03:00:43.511Z,1005.83
2018-12-19T03:01:43.503Z,1005.75
2018-12-19T03:02:43.488Z,1005.78
2018-12-19T03:03:43.476Z,1005.73
2018-12-19T03:04:43.487Z,1005.70
2018-12-19T03:05:43.455Z,1005.74
2018-12-19T03:06:43.445Z,1005.67
2018-12-19T03:07:43.435Z,1005.70
2018-12-19T03:08:43.438Z,1005.69
2018-12-19T03:09:43.428Z,1005.73
2018-12-19T03:10:43.400Z,1005.64
2018-12-19T03:11:43.396Z,1005.61
2018-12-19T03:12:43.377Z,1005.62
2018-12-19T03:13:43.367Z,1005.58
2018-12-19T03:14:43.377Z,1005.58
2018-12-19T03:15:43.398Z,1005.54
2018-12-19T03:16:43.330Z,1005.50
2018-12-19T03:17:43.328Z,1005.55
2018-12-19T03:18:43.312Z,1005.54
2018-12-19T03:19:43.330Z,1005.54
2018-12-19T03:20:43.289Z,1005.56
2018-12-19T03:21:43.273Z,1005.50
2018-12-19T03:22:43.266Z,1005.48
2018-12-19T03:23:43.251Z,1005.51
2018-12-19T03:24:43.264Z,1005.51
2018-12-19T03:25:43.229Z,1005.49
2018-12-19T03:26:43.234Z,1005.53
2018-12-19T03:27:43.209Z,1005.55
2018-12-19T03:28:43.197Z,1005.44
2018-12-19T03:29:43.207Z,1005.45
2018-12-19T03:30:43.174Z,1005.44
2018-12-19T03:31:43.162Z,1005.42
2018-12-19T03:32:43.155Z,1005.48
2018-12-19T03:33:43.139Z,1005.37
2018-12-19T03:34:43.152Z,1005.39
2018-12-19T03:35:43.124Z,1005.43
2018-12-19T03:36:43.109Z,1005.36
2018-12-19T03:37:43.100Z,1005.38
2018-12-19T03:38:43.082Z,1005.38
2018-12-19T03:39:50.022Z,1005.26
2018-12-19T03:40:44.061Z,1005.22
2018-12-19T03:41:43.049Z,1005.19
2018-12-19T03:42:43.038Z,1005.16
2018-12-19T03:43:43.027Z,1005.22
2018-12-19T03:44:43.044Z,1005.22
2018-12-19T03:45:43.007Z,1005.19
2018-12-19T03:46:42.994Z,1005.16
2018-12-19T03:47:42.981Z,1005.14
2018-12-19T03:48:42.973Z,1005.17
2018-12-19T03:49:42.979Z,1005.13
2018-12-19T03:50:42.947Z,1005.19
2018-12-19T03:51:42.941Z,1005.21
2018-12-19T03:52:42.928Z,1005.31
2018-12-19T03:53:42.914Z,1005.26
2018-12-19T03:54:42.923Z,1005.33
2018-12-19T03:55:42.892Z,1005.34
2018-12-19T03:56:42.881Z,1005.25
2018-12-19T03:57:42.874Z,1005.30
2018-12-19T03:58:42.859Z,1005.29
2018-12-19T03:59:42.867Z,1005.28
2018-12-19T04:00:42.838Z,1005.25
2018-12-19T04:01:42.827Z,1005.33
2018-12-19T04:02:42.816Z,1005.35
2018-12-19T04:03:42.805Z,1005.34
2018-12-19T04:04:42.812Z,1005.34
2018-12-19T04:05:42.779Z,1005.31
2018-12-19T04:06:42.768Z,1005.27
2018-12-19T04:07:42.764Z,1005.21
2018-12-19T04:08:42.750Z,1005.14
2018-12-19T04:09:42.791Z,1005.12
2018-12-19T04:10:42.729Z,1005.10
2018-12-19T04:11:42.713Z,1005.08
2018-12-19T04:12:42.700Z,1005.13
2018-12-19T04:13:42.691Z,1005.11
2018-12-19T04:14:42.678Z,1005.20
2018-12-19T04:15:42.688Z,1005.20
2018-12-19T04:16:42.656Z,1005.20
2018-12-19T04:17:42.645Z,1005.17
2018-12-19T04:18:42.637Z,1005.13
2018-12-19T04:19:42.649Z,1005.13
2018-12-19T04:20:42.634Z,1005.10
2018-12-19T04:21:42.613Z,1005.11
2018-12-19T04:22:42.590Z,1005.05
2018-12-19T04:23:42.578Z,1005.04
2018-12-19T04:24:42.570Z,1005.04
2018-12-19T04:25:42.581Z,1005.01
2018-12-19T04:26:42.565Z,1005.01
2018-12-19T04:27:42.537Z,1005.00
2018-12-19T04:28:42.522Z,1004.95
2018-12-19T04:29:42.511Z,1004.96
2018-12-19T04:30:42.590Z,1004.89
2018-12-19T04:31:42.490Z,1004.96
2018-12-19T04:32:42.479Z,1004.86
2018-12-19T04:33:42.472Z,1004.90
2018-12-19T04:34:42.460Z,1004.92
2018-12-19T04:35:42.464Z,1004.97
2018-12-19T04:36:42.441Z,1004.90
2018-12-19T04:37:42.423Z,1004.90
2018-12-19T04:38:42.411Z,1004.86
2018-12-19T04:39:42.403Z,1004.91
2018-12-19T04:40:42.408Z,1004.92
2018-12-19T04:41:42.380Z,1004.88
2018-12-19T04:42:42.365Z,1004.89
2018-12-19T04:43:42.353Z,1004.93
2018-12-19T04:44:42.347Z,1004.94
2018-12-19T04:45:42.355Z,1004.94
2018-12-19T04:46:42.325Z,1004.96
2018-12-19T04:47:42.309Z,1004.98
2018-12-19T04:48:42.299Z,1004.95
2018-12-19T04:49:42.290Z,1004.98
2018-12-19T04:50:42.296Z,1004.95
2018-12-19T04:51:42.263Z,1005.03
2018-12-19T04:52:42.253Z,1004.97
2018-12-19T04:53:42.241Z,1004.93
2018-12-19T04:54:42.233Z,1004.91
2018-12-19T04:55:42.243Z,1004.96
2018-12-19T04:56:42.208Z,1004.95
2018-12-19T04:57:42.197Z,1004.92
2018-12-19T04:58:42.197Z,1004.92
2018-12-19T04:59:42.174Z,1004.99
2018-12-19T05:00:42.184Z,1005.00
2018-12-19T05:01:42.152Z,1005.00
2018-12-19T05:02:42.143Z,1005.05
2018-12-19T05:03:42.138Z,1005.05
2018-12-19T05:04:42.124Z,1005.09
2018-12-19T05:05:42.128Z,1005.13
2018-12-19T05:06:42.099Z,1005.05
2018-12-19T05:07:42.086Z,1005.05
2018-12-19T05:08:42.076Z,1005.06
2018-12-19T05:09:42.067Z,1005.13
2018-12-19T05:10:42.075Z,1005.14
2018-12-19T05:11:42.045Z,1005.14
2018-12-19T05:12:42.037Z,1005.13
2018-12-19T05:13:42.030Z,1005.12
2018-12-19T05:14:42.009Z,1005.13
2018-12-19T05:15:42.019Z,1005.20
2018-12-19T05:16:41.984Z,1005.17
2018-12-19T05:17:41.977Z,1005.17
2018-12-19T05:18:41.963Z,1005.11
2018-12-19T05:19:41.950Z,1005.14
2018-12-19T05:20:41.964Z,1005.14
2018-12-19T05:21:41.929Z,1005.17
2018-12-19T05:22:41.917Z,1005.09
2018-12-19T05:23:41.904Z,1005.12
2018-12-19T05:24:41.893Z,1005.12
2018-12-19T05:25:41.904Z,1005.03
2018-12-19T05:26:41.871Z,1004.99
2018-12-19T05:27:41.860Z,1004.98
2018-12-19T05:28:41.849Z,1004.95
2018-12-19T05:29:41.842Z,1004.95
2018-12-19T05:30:41.849Z,1005.04
2018-12-19T05:31:41.847Z,1005.09
2018-12-19T05:32:41.803Z,1005.14
2018-12-19T05:33:41.797Z,1005.19
2018-12-19T05:34:41.782Z,1005.25
2018-12-19T05:35:41.791Z,1005.20
2018-12-19T05:36:41.761Z,1005.22
2018-12-19T05:37:41.746Z,1005.27
2018-12-19T05:38:41.736Z,1005.26
2018-12-19T05:39:41.723Z,1005.29
2018-12-19T05:40:41.735Z,1005.30
2018-12-19T05:41:41.702Z,1005.32
2018-12-19T05:42:41.693Z,1005.28
2018-12-19T05:43:41.678Z,1005.23
2018-12-19T05:44:41.668Z,1005.20
2018-12-19T05:45:41.678Z,1005.23
2018-12-19T05:46:41.652Z,1005.19
2018-12-19T05:47:41.635Z,1005.21
2018-12-19T05:48:41.624Z,1005.22
2018-12-19T05:49:41.612Z,1005.18
2018-12-19T05:50:41.627Z,1005.19
2018-12-19T05:51:41.593Z,1005.25
2018-12-19T05:52:41.587Z,1005.28
2018-12-19T05:53:41.573Z,1005.34
2018-12-19T05:54:41.555Z,1005.33
2018-12-19T05:55:41.564Z,1005.31
2018-12-19T05:56:41.534Z,1005.24
2018-12-19T05:57:41.524Z,1005.25
2018-12-19T05:58:41.527Z,1005.36
2018-12-19T05:59:41.503Z,1005.34
2018-12-19T06:00:41.510Z,1005.34
2018-12-19T06:01:41.482Z,1005.28
2018-12-19T06:02:41.471Z,1005.28
2018-12-19T06:03:41.475Z,1005.28
2018-12-19T06:04:41.444Z,1005.28
2018-12-19T06:05:41.452Z,1005.25
2018-12-19T06:06:41.421Z,1005.28
2018-12-19T06:07:41.411Z,1005.28
2018-12-19T06:08:41.432Z,1005.30
2018-12-19T06:09:41.391Z,1005.29
2018-12-19T06:10:41.411Z,1005.36
2018-12-19T06:11:41.365Z,1005.34
2018-12-19T06:12:41.353Z,1005.30
2018-12-19T06:13:41.343Z,1005.37
2018-12-19T06:14:41.333Z,1005.36
2018-12-19T06:15:41.346Z,1005.35
2018-12-19T06:16:41.345Z,1005.36
2018-12-19T06:17:41.302Z,1005.40
2018-12-19T06:18:41.290Z,1005.41
2018-12-19T06:19:41.274Z,1005.45
2018-12-19T06:20:41.275Z,1005.48
2018-12-19T06:21:41.271Z,1005.48
2018-12-19T06:22:41.243Z,1005.52
2018-12-19T06:23:41.229Z,1005.55
2018-12-19T06:24:41.218Z,1005.51
2018-12-19T06:25:41.217Z,1005.49
2018-12-19T06:26:41.215Z,1005.48
2018-12-19T06:27:41.184Z,1005.56
2018-12-19T06:28:41.183Z,1005.55
2018-12-19T06:29:41.200Z,1005.58
2018-12-19T06:30:41.151Z,1005.60
2018-12-19T06:31:41.164Z,1005.52
2018-12-19T06:32:41.128Z,1005.48
2018-12-19T06:33:41.119Z,1005.48
2018-12-19T06:34:41.107Z,1005.47
2018-12-19T06:35:41.097Z,1005.56
2018-12-19T06:36:41.105Z,1005.55
2018-12-19T06:37:41.071Z,1005.60
2018-12-19T06:38:41.063Z,1005.51
2018-12-19T06:39:50.423Z,1005.58
2018-12-19T06:41:35.183Z,1005.61
2018-12-19T06:42:35.153Z,1005.55
2018-12-19T06:43:35.141Z,1005.52
2018-12-19T06:44:35.130Z,1005.55
2018-12-19T06:45:35.120Z,1005.58
2018-12-19T06:46:35.130Z,1005.60
2018-12-19T06:47:35.097Z,1005.54
2018-12-19T06:48:35.090Z,1005.47
2018-12-19T06:49:35.075Z,1005.45
2018-12-19T06:50:35.068Z,1005.47
2018-12-19T06:51:35.075Z,1005.46
2018-12-19T06:52:35.054Z,1005.48
2018-12-19T06:53:35.032Z,1005.51
2018-12-19T06:54:35.022Z,1005.47
2018-12-19T06:55:35.010Z,1005.46
2018-12-19T06:56:35.021Z,1005.50
2018-12-19T06:57:34.987Z,1005.47
2018-12-19T06:58:34.979Z,1005.48
2018-12-19T06:59:34.967Z,1005.51
2018-12-19T07:00:34.958Z,1005.51
2018-12-19T07:01:34.964Z,1005.58
2018-12-19T07:02:34.940Z,1005.52
2018-12-19T07:03:34.922Z,1005.55
2018-12-19T07:04:34.913Z,1005.57
2018-12-19T07:05:34.901Z,1005.58
2018-12-19T07:06:34.908Z,1005.58
2018-12-19T07:07:34.880Z,1005.61
2018-12-19T07:08:34.866Z,1005.61
2018-12-19T07:09:34.854Z,1005.63
2018-12-19T07:10:39.160Z,1005.60
2018-12-19T07:11:34.856Z,1005.64
2018-12-19T07:12:34.826Z,1005.66
2018-12-19T07:13:34.810Z,1005.64
2018-12-19T07:14:34.798Z,1005.66
2018-12-19T07:15:34.790Z,1005.69
2018-12-19T07:16:34.797Z,1005.70
2018-12-19T07:17:34.766Z,1005.71
2018-12-19T07:18:34.754Z,1005.71
2018-12-19T07:19:34.743Z,1005.76
2018-12-19T07:20:34.734Z,1005.73
2018-12-19T07:21:34.741Z,1005.73
2018-12-19T07:22:34.712Z,1005.75
2018-12-19T07:23:34.701Z,1005.79
2018-12-19T07:24:34.691Z,1005.79
2018-12-19T07:25:34.677Z,1005.81
2018-12-19T07:26:34.686Z,1005.84
2018-12-19T07:27:34.658Z,1005.85
2018-12-19T07:28:34.644Z,1005.84
2018-12-19T07:29:34.633Z,1005.82
2018-12-19T07:30:34.624Z,1005.82
2018-12-19T07:31:34.630Z,1005.86
2018-12-19T07:32:34.600Z,1005.89
2018-12-19T07:33:34.589Z,1005.92
2018-12-19T07:34:34.580Z,1005.91
2018-12-19T07:35:34.568Z,1005.93
2018-12-19T07:36:34.575Z,1006.02
2018-12-19T07:37:34.544Z,1005.98
2018-12-19T07:38:34.535Z,1006.06
2018-12-19T07:39:34.522Z,1005.98
2018-12-19T07:40:34.511Z,1005.99
2018-12-19T07:41:34.524Z,1005.97
2018-12-19T07:42:34.492Z,1005.94
2018-12-19T07:43:34.478Z,1006.00
2018-12-19T07:44:34.466Z,1005.99
2018-12-19T07:45:34.457Z,1005.99
2018-12-19T07:46:34.468Z,1005.91
2018-12-19T07:47:34.436Z,1006.00
2018-12-19T07:48:34.422Z,1006.09
2018-12-19T07:49:34.411Z,1006.09
2018-12-19T07:50:34.400Z,1006.07
2018-12-19T07:51:34.411Z,1006.01
2018-12-19T07:52:34.379Z,1006.03
2018-12-19T07:53:34.367Z,1006.06
2018-12-19T07:54:34.355Z,1006.05
2018-12-19T07:55:34.344Z,1006.03
2018-12-19T07:56:34.334Z,1006.09
2018-12-19T07:57:34.347Z,1006.17
2018-12-19T07:58:34.312Z,1006.13
2018-12-19T07:59:34.300Z,1006.20
2018-12-19T08:00:34.295Z,1006.12
2018-12-19T08:01:34.281Z,1006.20
2018-12-19T08:02:34.290Z,1006.14
2018-12-19T08:03:34.259Z,1006.15
2018-12-19T08:04:34.246Z,1006.14
2018-12-19T08:05:34.235Z,1006.15
2018-12-19T08:06:34.223Z,1006.17
2018-12-19T08:07:34.231Z,1006.17
2018-12-19T08:08:34.203Z,1006.14
2018-12-19T08:09:34.190Z,1006.19
2018-12-19T08:10:34.180Z,1006.19
2018-12-19T08:11:34.175Z,1006.17
2018-12-19T08:12:36.092Z,1006.16
2018-12-19T08:13:34.146Z,1006.17
2018-12-19T08:14:34.136Z,1006.18
2018-12-19T08:15:34.126Z,1006.18
2018-12-19T08:16:34.113Z,1006.26
2018-12-19T08:17:34.121Z,1006.24
2018-12-19T08:18:34.091Z,1006.24
2018-12-19T08:19:34.079Z,1006.23
2018-12-19T08:20:34.070Z,1006.21
2018-12-19T08:21:34.083Z,1006.21
2018-12-19T08:22:34.067Z,1006.21
2018-12-19T08:23:34.036Z,1006.20
2018-12-19T08:24:34.035Z,1006.23
2018-12-19T08:25:34.014Z,1006.21
2018-12-19T08:26:34.003Z,1006.26
2018-12-19T08:27:34.011Z,1006.25
2018-12-19T08:28:33.983Z,1006.24
2018-12-19T08:29:33.972Z,1006.26
2018-12-19T08:30:33.961Z,1006.25
2018-12-19T08:31:33.950Z,1006.23
2018-12-19T08:32:33.957Z,1006.24
2018-12-19T08:33:33.933Z,1006.27
2018-12-19T08:34:33.915Z,1006.21
2018-12-19T08:35:33.903Z,1006.24
2018-12-19T08:36:33.905Z,1006.25
2018-12-19T08:37:33.913Z,1006.23
2018-12-19T08:38:33.877Z,1006.25
2018-12-19T08:39:33.864Z,1006.22
2018-12-19T08:40:33.851Z,1006.24
2018-12-19T08:41:33.839Z,1006.28
2018-12-19T08:42:33.846Z,1006.30
2018-12-19T08:43:33.820Z,1006.30
2018-12-19T08:44:33.805Z,1006.39
2018-12-19T08:45:33.814Z,1006.32
2018-12-19T08:46:33.782Z,1006.40
2018-12-19T08:47:33.791Z,1006.41
2018-12-19T08:48:33.762Z,1006.37
2018-12-19T08:49:33.751Z,1006.36
2018-12-19T08:50:33.743Z,1006.37
2018-12-19T08:51:33.729Z,1006.39
2018-12-19T08:52:33.739Z,1006.38
2018-12-19T08:53:33.707Z,1006.37
2018-12-19T08:54:33.695Z,1006.38
2018-12-19T08:55:33.689Z,1006.40
2018-12-19T08:56:33.685Z,1006.40
2018-12-19T08:57:33.684Z,1006.41
2018-12-19T08:58:33.651Z,1006.42
2018-12-19T08:59:33.644Z,1006.46
2018-12-19T09:00:33.636Z,1006.43
2018-12-19T09:01:33.617Z,1006.46
2018-12-19T09:02:33.633Z,1006.46
2018-12-19T09:03:33.596Z,1006.44
2018-12-19T09:04:33.585Z,1006.43
2018-12-19T09:05:33.573Z,1006.41
2018-12-19T09:06:33.563Z,1006.44
2018-12-19T09:07:33.570Z,1006.44
2018-12-19T09:08:33.542Z,1006.41
2018-12-19T09:09:33.542Z,1006.42
2018-12-19T09:10:33.519Z,1006.41
2018-12-19T09:11:33.512Z,1006.43
2018-12-19T09:12:33.517Z,1006.45
2018-12-19T09:13:33.485Z,1006.50
2018-12-19T09:14:33.474Z,1006.46
2018-12-19T09:15:33.470Z,1006.53
2018-12-19T09:16:33.452Z,1006.47
2018-12-19T09:17:33.464Z,1006.51
2018-12-19T09:18:33.429Z,1006.49
2018-12-19T09:19:33.422Z,1006.51
2018-12-19T09:20:33.873Z,1006.53
2018-12-19T09:21:33.398Z,1006.55
2018-12-19T09:22:33.405Z,1006.52
2018-12-19T09:23:33.380Z,1006.46
2018-12-19T09:24:33.365Z,1006.46
2018-12-19T09:25:33.362Z,1006.43
2018-12-19T09:26:33.342Z,1006.43
2018-12-19T09:27:33.353Z,1006.47
2018-12-19T09:28:33.326Z,1006.47
2018-12-19T09:29:33.308Z,1006.52
2018-12-19T09:30:33.298Z,1006.59
2018-12-19T09:31:33.289Z,1006.63
2018-12-19T09:32:33.299Z,1006.61
2018-12-19T09:33:33.265Z,1006.56
2018-12-19T09:34:33.254Z,1006.60
2018-12-19T09:35:33.242Z,1006.61
2018-12-19T09:36:33.234Z,1006.63
2018-12-19T09:37:33.242Z,1006.60
2018-12-19T09:38:33.210Z,1006.59
2018-12-19T09:39:33.254Z,1006.60
2018-12-19T09:40:33.187Z,1006.69
2018-12-19T09:41:33.178Z,1006.63
2018-12-19T09:42:33.185Z,1006.66
2018-12-19T09:43:33.155Z,1006.67
2018-12-19T09:44:33.145Z,1006.60
2018-12-19T09:45:33.135Z,1006.63
2018-12-19T09:46:33.131Z,1006.62
2018-12-19T09:47:33.133Z,1006.64
2018-12-19T09:48:33.108Z,1006.65
2018-12-19T09:49:33.090Z,1006.60
2018-12-19T09:50:33.078Z,1006.66
2018-12-19T09:51:33.066Z,1006.68
2018-12-19T09:52:33.085Z,1006.71
2018-12-19T09:53:33.046Z,1006.65
2018-12-19T09:54:33.033Z,1006.64
2018-12-19T09:55:33.023Z,1006.66
2018-12-19T09:56:33.012Z,1006.61
2018-12-19T09:57:33.007Z,1006.63
2018-12-19T09:58:33.010Z,1006.59
2018-12-19T09:59:32.979Z,1006.58
2018-12-19T10:00:32.970Z,1006.55
2018-12-19T10:01:32.976Z,1006.58
2018-12-19T10:02:32.946Z,1006.60
2018-12-19T10:03:32.955Z,1006.58
2018-12-19T10:04:32.938Z,1006.57
2018-12-19T10:05:32.913Z,1006.57
2018-12-19T10:06:32.906Z,1006.55
2018-12-19T10:07:32.892Z,1006.60
2018-12-19T10:08:32.903Z,1006.61
2018-12-19T10:09:32.871Z,1006.62
2018-12-19T10:10:32.857Z,1006.53
2018-12-19T10:11:32.847Z,1006.54
2018-12-19T10:12:32.840Z,1006.56
2018-12-19T10:13:32.850Z,1006.58
2018-12-19T10:14:32.815Z,1006.52
2018-12-19T10:15:32.805Z,1006.60
2018-12-19T10:16:32.792Z,1006.57
2018-12-19T10:17:32.783Z,1006.57
2018-12-19T10:18:32.792Z,1006.52
2018-12-19T10:19:32.762Z,1006.54
2018-12-19T10:20:32.751Z,1006.56
2018-12-19T10:21:32.740Z,1006.53
2018-12-19T10:22:32.730Z,1006.55
2018-12-19T10:23:32.735Z,1006.55
2018-12-19T10:24:32.709Z,1006.48
2018-12-19T10:25:32.693Z,1006.49
2018-12-19T10:26:32.683Z,1006.45
2018-12-19T10:27:32.671Z,1006.43
2018-12-19T10:28:32.679Z,1006.43
2018-12-19T10:29:32.653Z,1006.40
2018-12-19T10:30:32.641Z,1006.49
2018-12-19T10:31:32.627Z,1006.41
2018-12-19T10:32:32.616Z,1006.43
2018-12-19T10:33:32.626Z,1006.40
2018-12-19T10:34:32.600Z,1006.37
2018-12-19T10:35:32.584Z,1006.33
2018-12-19T10:36:32.572Z,1006.30
2018-12-19T10:37:32.561Z,1006.28
2018-12-19T10:38:32.569Z,1006.19
2018-12-19T10:39:32.538Z,1006.22
2018-12-19T10:40:32.528Z,1006.20
2018-12-19T10:41:32.520Z,1006.09
2018-12-19T10:42:32.509Z,1006.17
2018-12-19T10:43:32.517Z,1006.11
2018-12-19T10:44:32.489Z,1006.09
2018-12-19T10:45:32.478Z,1005.98
2018-12-19T10:46:32.464Z,1006.05
2018-12-19T10:47:32.455Z,1006.01
2018-12-19T10:48:32.464Z,1006.08
2018-12-19T10:49:32.434Z,1006.09
2018-12-19T10:50:32.420Z,1006.09
2018-12-19T10:51:32.410Z,1006.14
2018-12-19T10:52:32.403Z,1006.11
2018-12-19T10:53:33.806Z,1006.10
2018-12-19T10:54:32.378Z,1006.10
2018-12-19T10:55:32.365Z,1006.10
2018-12-19T10:56:32.354Z,1006.06
2018-12-19T10:57:32.345Z,1006.01
2018-12-19T10:58:32.357Z,1006.08
2018-12-19T10:59:32.322Z,1006.04
2018-12-19T11:00:32.312Z,1006.10
2018-12-19T11:01:32.302Z,1006.07
2018-12-19T11:02:32.291Z,1006.06
2018-12-19T11:03:32.301Z,1006.06
2018-12-19T11:04:32.273Z,1006.02
2018-12-19T11:05:32.256Z,1006.06
2018-12-19T11:06:32.249Z,1006.09
2018-12-19T11:07:32.234Z,1006.06
2018-12-19T11:08:32.245Z,1006.11
2018-12-19T11:09:32.213Z,1006.12
2018-12-19T11:10:32.203Z,1006.07
2018-12-19T11:11:32.542Z,1006.07
2018-12-19T11:12:32.180Z,1006.11
2018-12-19T11:13:32.191Z,1006.14
2018-12-19T11:14:32.157Z,1006.10
2018-12-19T11:15:32.148Z,1006.14
2018-12-19T11:16:32.141Z,1006.10
2018-12-19T11:17:32.124Z,1006.11
2018-12-19T11:18:32.133Z,1006.10
2018-12-19T11:19:32.101Z,1006.09
2018-12-19T11:20:32.092Z,1006.10
2018-12-19T11:21:32.085Z,1006.04
2018-12-19T11:22:32.069Z,1006.06
2018-12-19T11:23:32.079Z,1006.04
2018-12-19T11:24:32.049Z,1006.05
2018-12-19T11:25:32.035Z,1006.02
2018-12-19T11:26:32.025Z,1006.01
2018-12-19T11:27:32.029Z,1006.04
2018-12-19T11:28:32.024Z,1006.00
2018-12-19T11:29:31.995Z,1006.02
2018-12-19T11:30:31.980Z,1006.05
2018-12-19T11:31:31.973Z,1005.97
2018-12-19T11:32:31.961Z,1006.01
2018-12-19T11:33:31.967Z,1005.97
2018-12-19T11:34:31.959Z,1006.03
2018-12-19T11:35:31.933Z,1005.97
2018-12-19T11:36:31.924Z,1005.94
2018-12-19T11:37:31.906Z,1005.94
2018-12-19T11:38:31.926Z,1005.90
2018-12-19T11:39:31.881Z,1005.85
2018-12-19T11:40:31.869Z,1005.85
2018-12-19T11:41:31.859Z,1005.79
2018-12-19T11:42:31.848Z,1005.79
2018-12-19T11:43:31.840Z,1005.78
2018-12-19T11:44:31.858Z,1005.74
2018-12-19T11:45:31.819Z,1005.77
2018-12-19T11:46:31.808Z,1005.77
2018-12-19T11:47:31.793Z,1005.72
2018-12-19T11:48:31.786Z,1005.69
2018-12-19T11:49:31.800Z,1005.67
2018-12-19T11:50:31.763Z,1005.68
2018-12-19T11:51:31.751Z,1005.75
2018-12-19T11:52:31.745Z,1005.67
2018-12-19T11:53:31.728Z,1005.65
2018-12-19T11:54:31.738Z,1005.68
2018-12-19T11:55:31.707Z,1005.70
2018-12-19T11:56:31.698Z,1005.67
2018-12-19T11:57:31.683Z,1005.69
2018-12-19T11:58:31.674Z,1005.66
2018-12-19T11:59:31.684Z,1005.71
2018-12-19T12:00:31.651Z,1005.66
2018-12-19T12:01:31.648Z,1005.66
2018-12-19T12:02:31.631Z,1005.66
2018-12-19T12:03:31.619Z,1005.66
2018-12-19T12:04:31.629Z,1005.64
2018-12-19T12:05:31.600Z,1005.65
2018-12-19T12:06:31.585Z,1005.65